createdAt,value
2022-09-25T00:01:34.130Z,96949.34
2022-09-25T00:04:36.969Z,96943.88
2022-09-25T00:07:41.095Z,96943.25
2022-09-25T00:10:46.147Z,96943.44
2022-09-25T00:13:48.939Z,96953.00
2022-09-25T00:16:51.817Z,96944.03
2022-09-25T00:19:54.814Z,96952.56
2022-09-25T00:23:02.491Z,96950.06
2022-09-25T00:26:07.659Z,96956.94
2022-09-25T00:29:15.346Z,96961.47
2022-09-25T00:32:18.140Z,96956.81
2022-09-25T00:35:21.020Z,96953.00
2022-09-25T00:38:25.165Z,96946.09
2022-09-25T00:41:34.412Z,96947.28
2022-09-25T00:44:59.448Z,96942.34
2022-09-25T00:48:07.044Z,96949.56
2022-09-25T00:51:09.872Z,96957.16
2022-09-25T00:54:17.493Z,96967.66
2022-09-25T00:57:23.144Z,96978.50
2022-09-25T01:00:26.261Z,96982.84
2022-09-25T01:03:29.513Z,96975.97
2022-09-25T01:06:33.469Z,96973.91
2022-09-25T01:09:37.748Z,96974.59
2022-09-25T01:12:43.445Z,96968.16
2022-09-25T01:15:54.006Z,96981.34
2022-09-25T01:19:12.148Z,96983.25
2022-09-25T01:22:28.834Z,96980.78
2022-09-25T01:25:52.231Z,96976.16
2022-09-25T01:29:07.696Z,96993.25
2022-09-25T01:32:19.341Z,97011.56
2022-09-25T01:35:39.534Z,97017.97
2022-09-25T01:38:48.053Z,97021.22
2022-09-25T01:41:57.850Z,97021.69
2022-09-25T01:45:05.978Z,97014.41
2022-09-25T01:48:11.779Z,97004.53
2022-09-25T01:51:17.604Z,97009.94
2022-09-25T01:54:25.770Z,97009.53
2022-09-25T01:57:36.116Z,97007.59
2022-09-25T02:00:42.690Z,97013.09
2022-09-25T02:03:50.056Z,97018.81
2022-09-25T02:06:56.279Z,97015.59
2022-09-25T02:10:04.266Z,97016.41
2022-09-25T02:13:12.911Z,97017.69
2022-09-25T02:16:20.787Z,97006.69
2022-09-25T02:19:41.563Z,97002.56
2022-09-25T02:22:45.202Z,97001.38
2022-09-25T02:25:56.569Z,97017.00
2022-09-25T02:29:00.630Z,97011.16
2022-09-25T02:32:08.640Z,97008.72
2022-09-25T02:35:11.519Z,97006.69
2022-09-25T02:38:14.787Z,97003.78
2022-09-25T02:41:24.200Z,96992.69
2022-09-25T02:44:41.190Z,97002.81
2022-09-25T02:47:58.767Z,96995.94
2022-09-25T02:51:12.264Z,96990.44
2022-09-25T02:54:22.620Z,96981.88
2022-09-25T02:57:34.825Z,96984.47
2022-09-25T03:00:39.984Z,96990.06
2022-09-25T03:03:46.863Z,97015.66
2022-09-25T03:06:49.675Z,97029.34
2022-09-25T03:09:54.120Z,97036.59
2022-09-25T03:12:57.009Z,97043.81
2022-09-25T03:16:03.761Z,97052.53
2022-09-25T03:19:08.532Z,97042.94
2022-09-25T03:22:12.082Z,97047.22
2022-09-25T03:25:16.166Z,97050.91
2022-09-25T03:28:18.965Z,97056.47
2022-09-25T03:31:22.124Z,97064.53
2022-09-25T03:34:26.350Z,97072.34
2022-09-25T03:37:30.022Z,97071.84
2022-09-25T03:40:32.900Z,97075.03
2022-09-25T03:43:36.542Z,97070.06
2022-09-25T03:46:39.666Z,97060.41
2022-09-25T03:49:43.867Z,97048.63
2022-09-25T03:52:47.190Z,97043.19
2022-09-25T03:55:50.077Z,97036.94
2022-09-25T03:58:54.620Z,97021.53
2022-09-25T04:01:57.400Z,97015.13
2022-09-25T04:05:03.586Z,97022.56
2022-09-25T04:08:06.805Z,97022.31
2022-09-25T04:11:09.556Z,97036.91
2022-09-25T04:14:12.602Z,97036.72
2022-09-25T04:17:15.435Z,97040.75
2022-09-25T04:20:20.732Z,97046.78
2022-09-25T04:23:23.589Z,97052.16
2022-09-25T04:26:26.397Z,97065.25
2022-09-25T04:29:30.199Z,97060.25
2022-09-25T04:32:50.614Z,97055.34
2022-09-25T04:35:55.202Z,97045.09
2022-09-25T04:38:58.029Z,97046.91
2022-09-25T04:42:00.825Z,97049.41
2022-09-25T04:45:04.244Z,97048.59
2022-09-25T04:48:07.388Z,97055.91
2022-09-25T04:51:11.581Z,97047.28
2022-09-25T04:54:14.983Z,97054.44
2022-09-25T04:57:38.788Z,97047.50
2022-09-25T05:00:42.762Z,97035.00
2022-09-25T05:03:48.324Z,97041.75
2022-09-25T05:06:52.675Z,97046.16
2022-09-25T05:09:55.469Z,97060.00
2022-09-25T05:12:59.343Z,97067.34
2022-09-25T05:16:02.715Z,97070.06
2022-09-25T05:19:05.761Z,97076.91
2022-09-25T05:22:09.903Z,97091.22
2022-09-25T05:25:12.807Z,97092.88
2022-09-25T05:28:15.584Z,97094.13
2022-09-25T05:31:18.790Z,97106.22
2022-09-25T05:34:21.517Z,97105.38
2022-09-25T05:37:25.589Z,97108.56
2022-09-25T05:40:28.815Z,97130.25
2022-09-25T05:43:32.233Z,97115.31
2022-09-25T05:46:34.994Z,97121.50
2022-09-25T05:49:37.760Z,97111.75
2022-09-25T05:52:42.988Z,97104.06
2022-09-25T05:55:50.801Z,97095.63
2022-09-25T05:58:54.206Z,97091.75
2022-09-25T06:01:56.959Z,97092.81
2022-09-25T06:04:59.746Z,97087.38
2022-09-25T06:08:04.730Z,97091.97
2022-09-25T06:11:11.370Z,97101.31
2022-09-25T06:14:14.437Z,97089.06
2022-09-25T06:17:17.178Z,97099.66
2022-09-25T06:20:21.960Z,97098.41
2022-09-25T06:23:26.119Z,97086.59
2022-09-25T06:26:28.843Z,97096.72
2022-09-25T06:29:31.743Z,97082.13
2022-09-25T06:32:34.440Z,97091.69
2022-09-25T06:35:38.059Z,97086.50
2022-09-25T06:38:42.162Z,97085.19
2022-09-25T06:41:44.888Z,97085.38
2022-09-25T06:44:47.765Z,97100.44
2022-09-25T06:47:50.946Z,97104.19
2022-09-25T06:50:57.284Z,97107.09
2022-09-25T06:54:01.515Z,97108.34
2022-09-25T06:57:04.690Z,97113.22
2022-09-25T07:00:08.631Z,97121.44
2022-09-25T07:03:29.044Z,97117.41
2022-09-25T07:06:34.563Z,97117.47
2022-09-25T07:09:38.636Z,97108.22
2022-09-25T07:12:41.666Z,97107.19
2022-09-25T07:15:44.851Z,97100.78
2022-09-25T07:18:48.053Z,97094.53
2022-09-25T07:21:51.302Z,97089.13
2022-09-25T07:24:55.417Z,97088.16
2022-09-25T07:27:59.014Z,97080.91
2022-09-25T07:31:11.700Z,97066.16
2022-09-25T07:34:15.340Z,97065.00
2022-09-25T07:37:18.219Z,97042.16
2022-09-25T07:40:22.409Z,97043.47
2022-09-25T07:43:25.242Z,97020.81
2022-09-25T07:46:31.413Z,96997.69
2022-09-25T07:49:35.025Z,96973.16
2022-09-25T07:52:37.868Z,96955.72
2022-09-25T07:55:42.129Z,96931.78
2022-09-25T07:58:45.644Z,96914.91
2022-09-25T08:01:53.493Z,96911.25
2022-09-25T08:04:56.949Z,96898.44
2022-09-25T08:07:59.682Z,96888.50
2022-09-25T08:11:06.745Z,96864.94
2022-09-25T08:14:09.745Z,96858.44
2022-09-25T08:17:12.600Z,96855.16
2022-09-25T08:20:15.638Z,96840.50
2022-09-25T08:23:18.377Z,96832.41
2022-09-25T08:26:24.124Z,96834.13
2022-09-25T08:29:26.945Z,96823.78
2022-09-25T08:32:32.838Z,96810.31
2022-09-25T08:35:35.603Z,96805.81
2022-09-25T08:38:38.566Z,96796.94
2022-09-25T08:41:49.728Z,96796.72
2022-09-25T08:45:21.481Z,96792.19
2022-09-25T08:48:48.972Z,96794.75
2022-09-25T08:51:55.086Z,96791.06
2022-09-25T08:54:59.084Z,96774.28
2022-09-25T08:58:03.247Z,96776.94
2022-09-25T09:01:19.340Z,96767.16
2022-09-25T09:04:28.287Z,96756.88
2022-09-25T09:07:37.515Z,96757.91
2022-09-25T09:10:45.217Z,96756.69
2022-09-25T09:13:52.734Z,96760.91
2022-09-25T09:17:01.119Z,96758.88
2022-09-25T09:20:16.423Z,96754.63
2022-09-25T09:23:24.976Z,96756.81
2022-09-25T09:26:38.533Z,96756.28
2022-09-25T09:29:59.365Z,96746.28
2022-09-25T09:33:24.670Z,96743.94
2022-09-25T09:36:38.771Z,96742.47
2022-09-25T09:44:51.029Z,96738.72
2022-09-25T09:48:06.397Z,96741.28
2022-09-25T09:51:14.927Z,96738.47
2022-09-25T09:54:23.472Z,96730.53
2022-09-25T09:57:28.707Z,96728.63
2022-09-25T10:00:32.490Z,96733.38
2022-09-25T10:03:39.265Z,96737.06
2022-09-25T10:06:48.402Z,96722.88
2022-09-25T10:09:51.945Z,96731.50
2022-09-25T10:12:56.135Z,96728.09
2022-09-25T10:16:03.549Z,96730.28
2022-09-25T10:19:11.968Z,96738.16
2022-09-25T10:22:18.432Z,96740.13
2022-09-25T10:25:37.426Z,96737.28
2022-09-25T10:28:43.976Z,96732.91
2022-09-25T10:31:47.564Z,96731.41
2022-09-25T10:34:54.778Z,96722.78
2022-09-25T10:38:01.750Z,96730.53
2022-09-25T10:41:08.643Z,96730.41
2022-09-25T10:44:23.563Z,96728.81
2022-09-25T10:47:50.283Z,96732.50
2022-09-25T10:51:07.833Z,96735.88
2022-09-25T10:54:18.019Z,96742.44
2022-09-25T10:57:34.322Z,96734.75
2022-09-25T11:00:45.115Z,96745.22
2022-09-25T11:03:54.136Z,96733.91
2022-09-25T11:07:00.514Z,96741.31
2022-09-25T11:10:09.657Z,96745.59
2022-09-25T11:13:39.970Z,96746.63
2022-09-25T11:16:50.242Z,96743.97
2022-09-25T11:20:16.263Z,96765.13
2022-09-25T11:23:30.183Z,96770.06
2022-09-25T11:26:39.730Z,96755.88
2022-09-25T11:30:16.079Z,96757.03
2022-09-25T11:33:27.033Z,96761.75
2022-09-25T11:36:35.188Z,96764.59
2022-09-25T11:40:04.294Z,96773.34
2022-09-25T11:43:12.468Z,96769.50
2022-09-25T11:46:23.780Z,96784.88
2022-09-25T11:49:31.354Z,96789.53
2022-09-25T11:52:49.393Z,96794.50
2022-09-25T11:56:05.397Z,96787.47
2022-09-25T11:59:26.288Z,96770.13
2022-09-25T12:02:40.966Z,96763.06
2022-09-25T12:06:06.283Z,96759.69
2022-09-25T12:09:23.323Z,96766.59
2022-09-25T12:12:33.171Z,96758.88
2022-09-25T12:15:57.339Z,96757.59
2022-09-25T12:19:10.874Z,96749.38
2022-09-25T12:22:22.917Z,96748.91
2022-09-25T12:25:38.453Z,96758.88
2022-09-25T12:28:52.660Z,96754.22
2022-09-25T12:32:08.055Z,96762.09
2022-09-25T12:35:27.053Z,96758.28
2022-09-25T12:38:39.648Z,96754.56
2022-09-25T12:41:48.187Z,96755.41
2022-09-25T12:44:56.913Z,96757.63
2022-09-25T12:48:10.878Z,96750.69
2022-09-25T12:51:18.209Z,96761.41
2022-09-25T12:54:28.234Z,96750.13
2022-09-25T12:57:37.212Z,96751.97
2022-09-25T13:00:44.321Z,96734.88
2022-09-25T13:03:56.656Z,96741.06
2022-09-25T13:07:09.628Z,96717.63
2022-09-25T13:10:25.290Z,96708.13
2022-09-25T13:13:31.043Z,96689.91
2022-09-25T13:16:35.461Z,96663.59
2022-09-25T13:19:40.041Z,96642.38
2022-09-25T13:22:42.981Z,96643.41
2022-09-25T13:25:48.201Z,96636.69
2022-09-25T13:28:56.571Z,96636.81
2022-09-25T13:32:06.198Z,96621.25
2022-09-25T13:35:19.925Z,96622.19
2022-09-25T13:38:37.026Z,96618.47
2022-09-25T13:41:50.188Z,96628.06
2022-09-25T13:45:11.744Z,96630.03
2022-09-25T13:48:35.592Z,96625.16
2022-09-25T13:51:45.559Z,96643.28
2022-09-25T13:54:48.380Z,96646.06
2022-09-25T13:58:03.618Z,96662.00
2022-09-25T14:01:21.798Z,96657.25
2022-09-25T14:04:34.999Z,96656.78
2022-09-25T14:07:41.693Z,96663.13
2022-09-25T14:10:45.490Z,96676.53
2022-09-25T14:13:51.322Z,96639.81
2022-09-25T14:16:58.459Z,96622.03
2022-09-25T14:20:04.696Z,96613.75
2022-09-25T14:23:14.295Z,96622.75
2022-09-25T14:26:21.567Z,96623.66
2022-09-25T14:33:36.347Z,96608.66
2022-09-25T14:36:50.357Z,96612.69
2022-09-25T14:40:02.855Z,96605.78
2022-09-25T14:46:35.980Z,96599.66
2022-09-25T14:49:43.427Z,96605.31
2022-09-25T14:52:47.399Z,96595.84
2022-09-25T14:55:54.158Z,96595.41
2022-09-25T14:59:02.135Z,96596.88
2022-09-25T15:02:05.552Z,96602.19
2022-09-25T15:05:20.111Z,96596.88
2022-09-25T15:08:24.746Z,96605.22
2022-09-25T15:11:39.028Z,96604.03
2022-09-25T15:14:42.266Z,96606.13
2022-09-25T15:17:49.512Z,96601.03
2022-09-25T15:20:52.338Z,96600.69
2022-09-25T15:23:58.719Z,96602.28
2022-09-25T15:27:06.391Z,96602.41
2022-09-25T15:30:16.589Z,96593.53
2022-09-25T15:33:23.398Z,96600.59
2022-09-25T15:36:26.148Z,96611.22
2022-09-25T15:39:29.528Z,96617.44
2022-09-25T15:42:34.191Z,96616.53
2022-09-25T15:45:45.001Z,96631.94
2022-09-25T15:48:53.676Z,96632.03
2022-09-25T15:52:01.062Z,96633.28
2022-09-25T15:55:13.205Z,96635.94
2022-09-25T15:58:20.009Z,96626.22
2022-09-25T16:01:42.746Z,96620.09
2022-09-25T16:04:51.304Z,96620.91
2022-09-25T16:07:56.211Z,96621.22
2022-09-25T16:11:18.142Z,96616.97
2022-09-25T16:14:30.435Z,96616.28
2022-09-25T16:17:36.259Z,96609.38
2022-09-25T16:20:41.406Z,96598.75
2022-09-25T16:23:45.530Z,96597.38
2022-09-25T16:26:55.200Z,96602.91
2022-09-25T16:30:03.958Z,96599.75
2022-09-25T16:33:17.525Z,96606.41
2022-09-25T16:36:20.767Z,96604.88
2022-09-25T16:39:32.683Z,96609.44
2022-09-25T16:42:40.103Z,96612.94
2022-09-25T16:45:59.056Z,96608.84
2022-09-25T16:49:04.922Z,96606.03
2022-09-25T16:52:08.977Z,96607.66
2022-09-25T16:55:21.469Z,96602.88
2022-09-25T16:58:24.708Z,96604.22
2022-09-25T17:01:29.720Z,96599.75
2022-09-25T17:04:35.902Z,96602.75
2022-09-25T17:07:38.809Z,96592.06
2022-09-25T17:10:42.247Z,96587.28
2022-09-25T17:13:45.582Z,96587.22
2022-09-25T17:16:50.008Z,96599.00
2022-09-25T17:19:52.821Z,96596.56
2022-09-25T17:22:55.970Z,96597.38
2022-09-25T17:26:04.387Z,96602.28
2022-09-25T17:29:07.515Z,96604.78
2022-09-25T17:32:15.335Z,96602.38
2022-09-25T17:35:34.645Z,96599.84
2022-09-25T17:38:37.414Z,96605.38
2022-09-25T17:41:40.991Z,96615.31
2022-09-25T17:44:44.000Z,96618.97
2022-09-25T17:47:48.193Z,96623.84
2022-09-25T17:50:52.591Z,96626.69
2022-09-25T17:53:56.177Z,96632.78
2022-09-25T17:56:59.281Z,96621.25
2022-09-25T18:00:02.342Z,96628.81
2022-09-25T18:03:09.399Z,96627.59
2022-09-25T18:06:12.319Z,96628.53
2022-09-25T18:09:15.201Z,96641.75
2022-09-25T18:12:18.200Z,96647.50
2022-09-25T18:15:21.308Z,96642.50
2022-09-25T18:18:46.279Z,96644.78
2022-09-25T18:22:06.699Z,96658.91
2022-09-25T18:25:10.732Z,96662.50
2022-09-25T18:28:15.953Z,96675.38
2022-09-25T18:31:18.964Z,96694.63
2022-09-25T18:34:26.075Z,96719.31
2022-09-25T18:37:29.048Z,96750.22
2022-09-25T18:40:32.050Z,96777.63
2022-09-25T18:43:35.399Z,96793.88
2022-09-25T18:46:38.549Z,96807.25
2022-09-25T18:49:43.818Z,96820.69
2022-09-25T18:52:46.845Z,96833.25
2022-09-25T18:55:54.176Z,96831.22
2022-09-25T18:58:57.083Z,96836.06
2022-09-25T19:02:00.268Z,96833.81
2022-09-25T19:05:04.929Z,96835.66
2022-09-25T19:08:08.892Z,96833.63
2022-09-25T19:11:15.239Z,96840.56
2022-09-25T19:14:19.955Z,96841.56
2022-09-25T19:17:22.766Z,96846.22
2022-09-25T19:20:27.247Z,96854.16
2022-09-25T19:23:33.967Z,96858.41
2022-09-25T19:26:37.173Z,96873.66
2022-09-25T19:29:40.192Z,96878.78
2022-09-25T19:32:43.291Z,96897.44
2022-09-25T19:35:47.703Z,96907.59
2022-09-25T19:38:50.795Z,96921.03
2022-09-25T19:41:54.485Z,96945.56
2022-09-25T19:44:57.431Z,96953.91
2022-09-25T19:48:00.411Z,96967.31
2022-09-25T19:51:07.568Z,96990.03
2022-09-25T19:54:13.399Z,97002.63
2022-09-25T19:57:16.220Z,97008.53
2022-09-25T20:00:19.302Z,97016.84
2022-09-25T20:03:23.567Z,97021.34
2022-09-25T20:06:29.464Z,97037.19
2022-09-25T20:09:37.505Z,97043.28
2022-09-25T20:12:42.468Z,97053.66
2022-09-25T20:15:47.604Z,97051.94
2022-09-25T20:18:51.846Z,97071.25
2022-09-25T20:21:56.182Z,97079.38
2022-09-25T20:24:59.240Z,97094.41
2022-09-25T20:28:02.167Z,97104.59
2022-09-25T20:31:06.618Z,97106.63
2022-09-25T20:34:13.563Z,97110.47
2022-09-25T20:37:17.760Z,97107.84
2022-09-25T20:40:20.640Z,97102.75
2022-09-25T20:43:23.577Z,97109.66
2022-09-25T20:46:27.517Z,97110.63
2022-09-25T20:49:31.074Z,97114.72
2022-09-25T20:52:36.310Z,97118.59
2022-09-25T20:55:39.916Z,97113.09
2022-09-25T20:58:45.321Z,97122.03
2022-09-25T21:01:50.837Z,97127.75
2022-09-25T21:04:53.707Z,97124.09
2022-09-25T21:07:57.817Z,97122.06
2022-09-25T21:11:02.374Z,97115.56
2022-09-25T21:14:05.259Z,97116.16
2022-09-25T21:17:08.078Z,97120.38
2022-09-25T21:20:11.729Z,97128.91
2022-09-25T21:23:15.828Z,97133.56
2022-09-25T21:26:19.499Z,97143.13
2022-09-25T21:29:22.309Z,97142.72
2022-09-25T21:32:25.016Z,97146.16
2022-09-25T21:35:27.821Z,97154.47
2022-09-25T21:38:32.275Z,97152.38
2022-09-25T21:41:35.586Z,97158.00
2022-09-25T21:44:38.952Z,97157.13
2022-09-25T21:47:41.673Z,97176.19
2022-09-25T21:50:52.445Z,97174.59
2022-09-25T21:53:56.633Z,97187.13
2022-09-25T21:56:59.535Z,97192.69
2022-09-25T22:00:03.035Z,97194.31
2022-09-25T22:03:09.348Z,97194.03
2022-09-25T22:06:14.703Z,97201.38
2022-09-25T22:09:21.610Z,97204.19
2022-09-25T22:12:24.821Z,97210.47
2022-09-25T22:15:27.538Z,97219.78
2022-09-25T22:18:30.591Z,97223.00
2022-09-25T22:21:35.480Z,97231.91
2022-09-25T22:24:39.584Z,97243.25
2022-09-25T22:27:42.374Z,97240.00
2022-09-25T22:30:45.184Z,97240.19
2022-09-25T22:33:49.566Z,97246.22
2022-09-25T22:36:58.615Z,97256.63
2022-09-25T22:40:04.164Z,97258.00
2022-09-25T22:43:07.496Z,97262.47
2022-09-25T22:46:12.386Z,97264.66
2022-09-25T22:49:15.397Z,97266.84
2022-09-25T22:52:18.180Z,97274.59
2022-09-25T22:55:24.734Z,97270.78
2022-09-25T22:58:27.886Z,97277.44
2022-09-25T23:01:33.359Z,97278.44
2022-09-25T23:04:36.301Z,97286.34
2022-09-25T23:07:39.150Z,97292.88
2022-09-25T23:11:06.185Z,97284.91
2022-09-25T23:14:08.711Z,97286.91
2022-09-25T23:17:11.637Z,97284.81
2022-09-25T23:20:14.578Z,97284.19
2022-09-25T23:23:17.374Z,97280.44
2022-09-25T23:26:22.200Z,97287.06
2022-09-25T23:29:25.195Z,97290.91
2022-09-25T23:32:28.244Z,97282.44
2022-09-25T23:35:34.359Z,97280.72
2022-09-25T23:38:37.158Z,97274.22
2022-09-25T23:41:41.298Z,97277.00
2022-09-25T23:44:44.017Z,97257.94
2022-09-25T23:47:46.748Z,97258.69
2022-09-25T23:50:51.257Z,97256.31
2022-09-25T23:53:55.437Z,97248.53
2022-09-25T23:56:59.880Z,97241.53
